sensor_id;sensor_type;location;lat;lon;timestamp;pressure;altitude;pressure_sealevel;temperature;humidity
82379;BME280;72008;48.140;11.614;2023-11-22T00:00:32;95529.25;;;8.87;85.72
82379;BME280;72008;48.140;11.614;2023-11-22T00:01:32;95536.34;;;8.88;83.68
82379;BME280;72008;48.140;11.614;2023-11-22T00:02:32;95532.94;;;8.91;84.36
82379;BME280;72008;48.140;11.614;2023-11-22T00:03:33;95531.00;;;8.92;84.16
82379;BME280;72008;48.140;11.614;2023-11-22T00:04:33;95530.53;;;8.89;84.51
82379;BME280;72008;48.140;11.614;2023-11-22T00:05:34;95524.00;;;8.82;80.89
82379;BME280;72008;48.140;11.614;2023-11-22T00:06:34;95523.06;;;8.78;81.30
82379;BME280;72008;48.140;11.614;2023-11-22T00:07:34;95531.72;;;8.80;84.76
82379;BME280;72008;48.140;11.614;2023-11-22T00:08:35;95531.53;;;8.85;85.90
82379;BME280;72008;48.140;11.614;2023-11-22T00:09:36;95531.19;;;8.86;84.17
82379;BME280;72008;48.140;11.614;2023-11-22T00:10:36;95531.06;;;8.83;81.30
82379;BME280;72008;48.140;11.614;2023-11-22T00:11:36;95532.25;;;8.73;78.69
82379;BME280;72008;48.140;11.614;2023-11-22T00:12:37;95537.84;;;8.77;85.06
82379;BME280;72008;48.140;11.614;2023-11-22T00:13:37;95540.56;;;8.77;83.59
82379;BME280;72008;48.140;11.614;2023-11-22T00:14:38;95536.03;;;8.81;83.31
82379;BME280;72008;48.140;11.614;2023-11-22T00:15:38;95538.00;;;8.72;79.31
82379;BME280;72008;48.140;11.614;2023-11-22T00:16:38;95539.28;;;8.74;84.45
82379;BME280;72008;48.140;11.614;2023-11-22T00:17:39;95537.34;;;8.75;81.54
82379;BME280;72008;48.140;11.614;2023-11-22T00:18:39;95535.09;;;8.77;85.36
82379;BME280;72008;48.140;11.614;2023-11-22T00:19:40;95535.59;;;8.79;85.47
82379;BME280;72008;48.140;11.614;2023-11-22T00:20:40;95534.63;;;8.75;83.86
82379;BME280;72008;48.140;11.614;2023-11-22T00:21:40;95531.72;;;8.80;85.01
82379;BME280;72008;48.140;11.614;2023-11-22T00:22:41;95538.44;;;8.82;85.00
82379;BME280;72008;48.140;11.614;2023-11-22T00:23:41;95538.75;;;8.81;84.50
82379;BME280;72008;48.140;11.614;2023-11-22T00:24:41;95539.09;;;8.79;82.01
82379;BME280;72008;48.140;11.614;2023-11-22T00:25:42;95530.13;;;8.79;83.99
82379;BME280;72008;48.140;11.614;2023-11-22T00:26:42;95537.56;;;8.70;80.95
82379;BME280;72008;48.140;11.614;2023-11-22T00:27:43;95540.09;;;8.75;83.33
82379;BME280;72008;48.140;11.614;2023-11-22T00:28:43;95538.69;;;8.69;84.54
82379;BME280;72008;48.140;11.614;2023-11-22T00:29:43;95536.91;;;8.73;82.56
82379;BME280;72008;48.140;11.614;2023-11-22T00:30:44;95537.84;;;8.77;85.91
82379;BME280;72008;48.140;11.614;2023-11-22T00:31:44;95535.09;;;8.77;85.19
82379;BME280;72008;48.140;11.614;2023-11-22T00:32:45;95536.69;;;8.78;84.63
82379;BME280;72008;48.140;11.614;2023-11-22T00:33:45;95542.81;;;8.75;81.71
82379;BME280;72008;48.140;11.614;2023-11-22T00:34:45;95541.34;;;8.77;83.90
82379;BME280;72008;48.140;11.614;2023-11-22T00:35:46;95536.03;;;8.81;83.69
82379;BME280;72008;48.140;11.614;2023-11-22T00:36:46;95537.03;;;8.76;83.24
82379;BME280;72008;48.140;11.614;2023-11-22T00:37:47;95540.22;;;8.78;83.01
82379;BME280;72008;48.140;11.614;2023-11-22T00:38:47;95531.59;;;8.76;82.70
82379;BME280;72008;48.140;11.614;2023-11-22T00:39:47;95542.50;;;8.76;82.99
82379;BME280;72008;48.140;11.614;2023-11-22T00:40:48;95536.69;;;8.78;84.63
82379;BME280;72008;48.140;11.614;2023-11-22T00:41:48;95539.41;;;8.78;84.35
82379;BME280;72008;48.140;11.614;2023-11-22T00:42:48;95538.63;;;8.77;82.99
82379;BME280;72008;48.140;11.614;2023-11-22T00:43:49;95545.69;;;8.78;82.44
82379;BME280;72008;48.140;11.614;2023-11-22T00:44:49;95541.41;;;8.69;82.62
82379;BME280;72008;48.140;11.614;2023-11-22T00:45:50;95542.81;;;8.75;84.96
82379;BME280;72008;48.140;11.614;2023-11-22T00:46:50;95545.53;;;8.75;83.39
82379;BME280;72008;48.140;11.614;2023-11-22T00:47:50;95545.41;;;8.71;82.37
82379;BME280;72008;48.140;11.614;2023-11-22T00:48:51;95552.34;;;8.60;79.65
82379;BME280;72008;48.140;11.614;2023-11-22T00:49:51;95541.88;;;8.71;84.16
82379;BME280;72008;48.140;11.614;2023-11-22T00:50:52;95550.22;;;8.74;83.79
82379;BME280;72008;48.140;11.614;2023-11-22T00:51:52;95549.78;;;8.63;83.02
82379;BME280;72008;48.140;11.614;2023-11-22T00:52:52;95556.00;;;8.73;85.47
82379;BME280;72008;48.140;11.614;2023-11-22T00:53:53;95548.47;;;8.70;82.31
82379;BME280;72008;48.140;11.614;2023-11-22T00:54:53;95554.88;;;8.74;84.73
82379;BME280;72008;48.140;11.614;2023-11-22T00:55:54;95554.38;;;8.72;80.44
82379;BME280;72008;48.140;11.614;2023-11-22T00:56:54;95548.66;;;8.64;80.47
82379;BME280;72008;48.140;11.614;2023-11-22T00:57:54;95547.66;;;8.69;83.84
82379;BME280;72008;48.140;11.614;2023-11-22T00:58:55;95545.94;;;8.64;80.32
82379;BME280;72008;48.140;11.614;2023-11-22T00:59:55;95548.00;;;8.68;81.52
82379;BME280;72008;48.140;11.614;2023-11-22T01:00:55;95553.94;;;8.70;82.34
82379;BME280;72008;48.140;11.614;2023-11-22T01:01:56;95556.53;;;8.57;83.75
82379;BME280;72008;48.140;11.614;2023-11-22T01:02:56;95545.44;;;8.62;84.45
82379;BME280;72008;48.140;11.614;2023-11-22T01:03:57;95558.91;;;8.68;84.83
82379;BME280;72008;48.140;11.614;2023-11-22T01:04:57;95549.28;;;8.70;84.17
82379;BME280;72008;48.140;11.614;2023-11-22T01:05:58;95552.13;;;8.74;85.24
82379;BME280;72008;48.140;11.614;2023-11-22T01:06:58;95549.72;;;8.72;83.92
82379;BME280;72008;48.140;11.614;2023-11-22T01:07:58;95562.91;;;8.70;83.31
82379;BME280;72008;48.140;11.614;2023-11-22T01:08:59;95559.06;;;8.71;82.68
82379;BME280;72008;48.140;11.614;2023-11-22T01:10:00;95561.66;;;8.68;83.55
82379;BME280;72008;48.140;11.614;2023-11-22T01:11:00;95564.03;;;8.69;84.14
82379;BME280;72008;48.140;11.614;2023-11-22T01:12:01;95561.13;;;8.74;85.48
82379;BME280;72008;48.140;11.614;2023-11-22T01:13:01;95562.56;;;8.72;82.27
82379;BME280;72008;48.140;11.614;2023-11-22T01:14:02;95560.97;;;8.71;83.46
82379;BME280;72008;48.140;11.614;2023-11-22T01:15:02;95559.88;;;8.63;80.34
82379;BME280;72008;48.140;11.614;2023-11-22T01:16:03;95556.06;;;8.64;82.45
82379;BME280;72008;48.140;11.614;2023-11-22T01:17:03;95567.59;;;8.70;83.08
82379;BME280;72008;48.140;11.614;2023-11-22T01:18:04;95558.56;;;8.69;81.12
82379;BME280;72008;48.140;11.614;2023-11-22T01:19:04;95560.97;;;8.71;84.96
82379;BME280;72008;48.140;11.614;2023-11-22T01:20:05;95564.19;;;8.73;84.23
82379;BME280;72008;48.140;11.614;2023-11-22T01:21:06;95566.75;;;8.69;82.40
82379;BME280;72008;48.140;11.614;2023-11-22T01:22:06;95561.50;;;8.64;80.28
82379;BME280;72008;48.140;11.614;2023-11-22T01:23:07;95554.72;;;8.70;85.41
82379;BME280;72008;48.140;11.614;2023-11-22T01:24:07;95562.91;;;8.70;84.43
82379;BME280;72008;48.140;11.614;2023-11-22T01:25:08;95560.63;;;8.72;84.37
82379;BME280;72008;48.140;11.614;2023-11-22T01:26:08;95561.28;;;8.69;83.82
82379;BME280;72008;48.140;11.614;2023-11-22T01:27:09;95571.56;;;8.72;84.87
82379;BME280;72008;48.140;11.614;2023-11-22T01:28:09;95565.81;;;8.65;80.73
82379;BME280;72008;48.140;11.614;2023-11-22T01:29:09;95568.69;;;8.69;82.77
82379;BME280;72008;48.140;11.614;2023-11-22T01:30:10;95567.59;;;8.70;85.51
82379;BME280;72008;48.140;11.614;2023-11-22T01:31:12;95576.34;;;8.75;85.73
82379;BME280;72008;48.140;11.614;2023-11-22T01:32:12;95571.25;;;8.74;83.79
82379;BME280;72008;48.140;11.614;2023-11-22T01:33:13;95574.75;;;8.74;85.17
82379;BME280;72008;48.140;11.614;2023-11-22T01:34:13;95570.94;;;8.66;81.28
82379;BME280;72008;48.140;11.614;2023-11-22T01:35:13;95578.16;;;8.71;85.54
82379;BME280;72008;48.140;11.614;2023-11-22T01:36:14;95573.34;;;8.68;84.46
82379;BME280;72008;48.140;11.614;2023-11-22T01:37:14;95574.16;;;8.69;83.97
82379;BME280;72008;48.140;11.614;2023-11-22T01:38:14;95576.56;;;8.70;84.38
82379;BME280;72008;48.140;11.614;2023-11-22T01:39:15;95578.63;;;8.73;85.31
82379;BME280;72008;48.140;11.614;2023-11-22T01:40:15;95578.16;;;8.71;80.20
82379;BME280;72008;48.140;11.614;2023-11-22T01:41:16;95578.94;;;8.72;83.05
82379;BME280;72008;48.140;11.614;2023-11-22T01:42:16;95578.63;;;8.73;85.33
82379;BME280;72008;48.140;11.614;2023-11-22T01:43:18;95575.44;;;8.71;81.97
82379;BME280;72008;48.140;11.614;2023-11-22T01:44:19;95580.41;;;8.69;81.78
82379;BME280;72008;48.140;11.614;2023-11-22T01:45:19;95579.28;;;8.70;83.74
82379;BME280;72008;48.140;11.614;2023-11-22T01:46:24;95584.09;;;8.73;84.58
82379;BME280;72008;48.140;11.614;2023-11-22T01:47:24;95590.00;;;8.75;84.58
82379;BME280;72008;48.140;11.614;2023-11-22T01:48:26;95583.97;;;8.70;83.17
82379;BME280;72008;48.140;11.614;2023-11-22T01:49:26;95581.53;;;8.68;82.63
82379;BME280;72008;48.140;11.614;2023-11-22T01:50:27;95592.31;;;8.64;82.58
82379;BME280;72008;48.140;11.614;2023-11-22T01:51:27;95594.38;;;8.68;84.78
82379;BME280;72008;48.140;11.614;2023-11-22T01:52:28;95586.50;;;8.66;82.23
82379;BME280;72008;48.140;11.614;2023-11-22T01:53:29;95591.97;;;8.66;84.27
82379;BME280;72008;48.140;11.614;2023-11-22T01:54:31;95590.88;;;8.67;84.46
82379;BME280;72008;48.140;11.614;2023-11-22T01:55:32;95590.53;;;8.69;84.24
82379;BME280;72008;48.140;11.614;2023-11-22T01:56:35;95591.19;;;8.65;84.62
82379;BME280;72008;48.140;11.614;2023-11-22T01:57:36;95585.06;;;8.69;84.67
82379;BME280;72008;48.140;11.614;2023-11-22T01:58:37;95586.69;;;8.70;84.23
82379;BME280;72008;48.140;11.614;2023-11-22T01:59:39;95588.13;;;8.67;83.46
82379;BME280;72008;48.140;11.614;2023-11-22T02:00:49;95589.59;;;8.64;85.30
82379;BME280;72008;48.140;11.614;2023-11-22T02:01:50;95592.31;;;8.64;85.04
82379;BME280;72008;48.140;11.614;2023-11-22T02:02:51;95597.63;;;7.88;79.83
82379;BME280;72008;48.140;11.614;2023-11-22T02:03:51;95596.34;;;7.77;83.75
82379;BME280;72008;48.140;11.614;2023-11-22T02:04:51;95595.22;;;7.78;83.00
82379;BME280;72008;48.140;11.614;2023-11-22T02:05:52;95602.44;;;7.73;83.10
82379;BME280;72008;48.140;11.614;2023-11-22T02:06:52;95597.63;;;7.88;83.45
82379;BME280;72008;48.140;11.614;2023-11-22T02:07:53;95600.38;;;7.88;85.40
82379;BME280;72008;48.140;11.614;2023-11-22T02:08:53;95601.31;;;7.92;83.63
82379;BME280;72008;48.140;11.614;2023-11-22T02:09:54;95596.66;;;7.84;82.19
82379;BME280;72008;48.140;11.614;2023-11-22T02:11:01;95600.22;;;7.75;79.86
82379;BME280;72008;48.140;11.614;2023-11-22T02:12:02;95611.75;;;7.81;81.61
82379;BME280;72008;48.140;11.614;2023-11-22T02:13:06;95608.53;;;7.53;80.35
82379;BME280;72008;48.140;11.614;2023-11-22T02:14:06;95607.09;;;7.47;84.14
82379;BME280;72008;48.140;11.614;2023-11-22T02:15:07;95612.22;;;7.57;85.15
82379;BME280;72008;48.140;11.614;2023-11-22T02:16:07;95610.47;;;7.70;86.64
82379;BME280;72008;48.140;11.614;2023-11-22T02:17:08;95609.97;;;7.68;84.53
82379;BME280;72008;48.140;11.614;2023-11-22T02:18:08;95621.03;;;7.71;85.38
82379;BME280;72008;48.140;11.614;2023-11-22T02:19:16;95615.78;;;7.75;84.55
82379;BME280;72008;48.140;11.614;2023-11-22T02:20:17;95614.78;;;7.71;84.29
82379;BME280;72008;48.140;11.614;2023-11-22T02:21:17;95612.06;;;7.71;78.82
82379;BME280;72008;48.140;11.614;2023-11-22T02:22:18;95621.03;;;7.63;82.56
82379;BME280;72008;48.140;11.614;2023-11-22T02:23:18;95614.34;;;7.60;82.90
82379;BME280;72008;48.140;11.614;2023-11-22T02:24:19;95622.97;;;7.71;85.28
82379;BME280;72008;48.140;11.614;2023-11-22T02:25:19;95615.44;;;7.59;80.45
82379;BME280;72008;48.140;11.614;2023-11-22T02:26:20;95623.59;;;7.59;80.78
82379;BME280;72008;48.140;11.614;2023-11-22T02:27:20;95630.81;;;7.55;77.38
82379;BME280;72008;48.140;11.614;2023-11-22T02:28:21;95625.22;;;7.60;83.47
82379;BME280;72008;48.140;11.614;2023-11-22T02:29:21;95634.34;;;7.64;84.21
82379;BME280;72008;48.140;11.614;2023-11-22T02:30:22;95639.00;;;7.72;84.86
82379;BME280;72008;48.140;11.614;2023-11-22T02:31:22;95636.94;;;7.69;83.17
82379;BME280;72008;48.140;11.614;2023-11-22T02:32:22;95638.38;;;7.75;82.37
82379;BME280;72008;48.140;11.614;2023-11-22T02:33:23;95641.25;;;7.79;83.07
82379;BME280;72008;48.140;11.614;2023-11-22T02:34:23;95627.28;;;7.81;81.28
82379;BME280;72008;48.140;11.614;2023-11-22T02:35:24;95632.28;;;7.87;84.00
82379;BME280;72008;48.140;11.614;2023-11-22T02:36:24;95629.84;;;7.77;83.90
82379;BME280;72008;48.140;11.614;2023-11-22T02:37:25;95633.56;;;7.81;85.53
82379;BME280;72008;48.140;11.614;2023-11-22T02:38:25;95635.16;;;7.82;81.72
82379;BME280;72008;48.140;11.614;2023-11-22T02:39:41;95632.41;;;7.82;81.23
82379;BME280;72008;48.140;11.614;2023-11-22T02:40:43;95642.84;;;7.80;83.52
82379;BME280;72008;48.140;11.614;2023-11-22T02:41:44;95631.78;;;7.77;81.84
82379;BME280;72008;48.140;11.614;2023-11-22T02:42:48;95630.84;;;7.81;81.00
82379;BME280;72008;48.140;11.614;2023-11-22T02:43:48;95639.66;;;7.87;85.55
82379;BME280;72008;48.140;11.614;2023-11-22T02:44:49;95637.22;;;7.59;79.50
82379;BME280;72008;48.140;11.614;2023-11-22T02:45:49;95642.38;;;7.69;82.60
82379;BME280;72008;48.140;11.614;2023-11-22T02:46:49;95642.69;;;7.59;78.84
82379;BME280;72008;48.140;11.614;2023-11-22T02:47:50;95650.06;;;7.67;83.70
82379;BME280;72008;48.140;11.614;2023-11-22T02:48:50;95648.13;;;7.59;79.55
82379;BME280;72008;48.140;11.614;2023-11-22T02:49:51;95641.56;;;7.51;79.05
82379;BME280;72008;48.140;11.614;2023-11-22T02:50:52;95655.00;;;7.48;78.92
82379;BME280;72008;48.140;11.614;2023-11-22T02:51:52;95654.06;;;7.52;80.36
82379;BME280;72008;48.140;11.614;2023-11-22T02:52:53;95651.31;;;7.44;76.40
82379;BME280;72008;48.140;11.614;2023-11-22T02:53:53;95651.47;;;7.47;84.96
82379;BME280;72008;48.140;11.614;2023-11-22T02:54:54;95651.97;;;7.49;81.55
82379;BME280;72008;48.140;11.614;2023-11-22T02:55:54;95644.09;;;7.57;82.12
82379;BME280;72008;48.140;11.614;2023-11-22T02:56:55;95649.19;;;7.23;79.90
82379;BME280;72008;48.140;11.614;2023-11-22T02:57:55;95642.97;;;7.32;82.16
82379;BME280;72008;48.140;11.614;2023-11-22T02:58:56;95648.91;;;7.25;80.85
82379;BME280;72008;48.140;11.614;2023-11-22T02:59:57;95644.91;;;7.31;79.33
82379;BME280;72008;48.140;11.614;2023-11-22T03:00:57;95649.38;;;7.36;80.33
82379;BME280;72008;48.140;11.614;2023-11-22T03:01:58;95656.44;;;7.37;80.79
82379;BME280;72008;48.140;11.614;2023-11-22T03:02:58;95656.72;;;7.26;80.08
82379;BME280;72008;48.140;11.614;2023-11-22T03:03:59;95652.69;;;7.15;80.14
82379;BME280;72008;48.140;11.614;2023-11-22T03:04:59;95654.31;;;7.16;78.56
82379;BME280;72008;48.140;11.614;2023-11-22T03:06:00;95656.41;;;7.19;78.12
82379;BME280;72008;48.140;11.614;2023-11-22T03:07:00;95663.47;;;7.29;84.58
82379;BME280;72008;48.140;11.614;2023-11-22T03:08:00;95667.63;;;7.26;80.22
82379;BME280;72008;48.140;11.614;2023-11-22T03:09:01;95665.53;;;7.23;80.71
82379;BME280;72008;48.140;11.614;2023-11-22T03:10:02;95666.06;;;7.34;85.28
82379;BME280;72008;48.140;11.614;2023-11-22T03:11:03;95667.34;;;7.37;81.54
82379;BME280;72008;48.140;11.614;2023-11-22T03:12:03;95667.78;;;7.30;77.76
82379;BME280;72008;48.140;11.614;2023-11-22T03:13:04;95668.78;;;7.34;82.91
82379;BME280;72008;48.140;11.614;2023-11-22T03:14:04;95676.13;;;7.42;84.43
82379;BME280;72008;48.140;11.614;2023-11-22T03:15:05;95662.69;;;7.37;81.60
82379;BME280;72008;48.140;11.614;2023-11-22T03:16:06;95678.00;;;7.16;75.48
82379;BME280;72008;48.140;11.614;2023-11-22T03:17:06;95660.06;;;7.15;79.03
82379;BME280;72008;48.140;11.614;2023-11-22T03:18:07;95674.34;;;7.20;81.65
82379;BME280;72008;48.140;11.614;2023-11-22T03:19:07;95681.72;;;7.20;80.30
82379;BME280;72008;48.140;11.614;2023-11-22T03:20:08;95673.19;;;7.04;76.73
82379;BME280;72008;48.140;11.614;2023-11-22T03:21:08;95681.81;;;7.06;79.89
82379;BME280;72008;48.140;11.614;2023-11-22T03:22:09;95678.72;;;6.90;82.44
82379;BME280;72008;48.140;11.614;2023-11-22T03:23:09;95681.63;;;6.94;80.79
82379;BME280;72008;48.140;11.614;2023-11-22T03:24:09;95676.66;;;6.87;76.30
82379;BME280;72008;48.140;11.614;2023-11-22T03:25:11;95684.47;;;6.89;81.66
82379;BME280;72008;48.140;11.614;2023-11-22T03:26:12;95686.41;;;6.88;77.31
82379;BME280;72008;48.140;11.614;2023-11-22T03:27:12;95692.97;;;6.87;80.76
82379;BME280;72008;48.140;11.614;2023-11-22T03:28:13;95679.72;;;7.03;84.95
82379;BME280;72008;48.140;11.614;2023-11-22T03:29:16;95691.25;;;7.00;81.33
82379;BME280;72008;48.140;11.614;2023-11-22T03:30:17;95693.75;;;6.88;78.04
82379;BME280;72008;48.140;11.614;2023-11-22T03:31:17;95690.22;;;6.78;75.39
82379;BME280;72008;48.140;11.614;2023-11-22T03:32:18;95692.31;;;6.81;81.69
82379;BME280;72008;48.140;11.614;2023-11-22T03:33:18;95694.69;;;6.83;77.41
82379;BME280;72008;48.140;11.614;2023-11-22T03:34:19;95690.38;;;6.82;79.36
82379;BME280;72008;48.140;11.614;2023-11-22T03:35:20;95697.25;;;6.79;79.35
82379;BME280;72008;48.140;11.614;2023-11-22T03:36:21;95698.88;;;6.80;79.12
82379;BME280;72008;48.140;11.614;2023-11-22T03:37:21;95695.66;;;6.78;80.44
82379;BME280;72008;48.140;11.614;2023-11-22T03:38:21;95694.06;;;6.77;76.95
82379;BME280;72008;48.140;11.614;2023-11-22T03:39:22;95691.59;;;6.67;79.64
82379;BME280;72008;48.140;11.614;2023-11-22T03:40:22;95699.75;;;6.67;79.41
82379;BME280;72008;48.140;11.614;2023-11-22T03:41:23;95701.31;;;6.59;82.29
82379;BME280;72008;48.140;11.614;2023-11-22T03:42:23;95702.69;;;6.79;82.46
82379;BME280;72008;48.140;11.614;2023-11-22T03:43:23;95709.78;;;6.89;82.57
82379;BME280;72008;48.140;11.614;2023-11-22T03:44:24;95710.56;;;6.81;76.66
82379;BME280;72008;48.140;11.614;2023-11-22T03:45:24;95709.91;;;6.84;78.57
82379;BME280;72008;48.140;11.614;2023-11-22T03:46:25;95709.28;;;6.87;79.69
82379;BME280;72008;48.140;11.614;2023-11-22T03:47:25;95708.78;;;6.85;79.83
82379;BME280;72008;48.140;11.614;2023-11-22T03:48:25;95715.06;;;6.94;85.17
82379;BME280;72008;48.140;11.614;2023-11-22T03:49:26;95709.00;;;6.97;82.89
82379;BME280;72008;48.140;11.614;2023-11-22T03:50:26;95712.94;;;6.82;79.65
82379;BME280;72008;48.140;11.614;2023-11-22T03:51:27;95709.47;;;6.91;82.84
82379;BME280;72008;48.140;11.614;2023-11-22T03:52:27;95717.16;;;6.97;78.67
82379;BME280;72008;48.140;11.614;2023-11-22T03:53:27;95717.53;;;7.04;81.16
82379;BME280;72008;48.140;11.614;2023-11-22T03:54:28;95726.78;;;7.03;82.22
82379;BME280;72008;48.140;11.614;2023-11-22T03:55:28;95719.41;;;6.95;77.45
82379;BME280;72008;48.140;11.614;2023-11-22T03:56:29;95720.69;;;6.98;82.80
82379;BME280;72008;48.140;11.614;2023-11-22T03:57:29;95725.28;;;6.89;76.72
82379;BME280;72008;48.140;11.614;2023-11-22T03:58:29;95721.31;;;6.95;82.76
82379;BME280;72008;48.140;11.614;2023-11-22T03:59:30;95720.38;;;6.99;83.55
82379;BME280;72008;48.140;11.614;2023-11-22T04:00:31;95724.53;;;6.97;81.91
82379;BME280;72008;48.140;11.614;2023-11-22T04:01:31;95740.03;;;6.88;80.52
82379;BME280;72008;48.140;11.614;2023-11-22T04:02:31;95736.22;;;6.97;80.55
82379;BME280;72008;48.140;11.614;2023-11-22T04:03:32;95740.09;;;7.05;84.55
82379;BME280;72008;48.140;11.614;2023-11-22T04:04:32;95742.28;;;6.94;75.51
82379;BME280;72008;48.140;11.614;2023-11-22T04:05:33;95737.16;;;6.93;80.85
82379;BME280;72008;48.140;11.614;2023-11-22T04:06:33;95749.81;;;6.97;85.47
82379;BME280;72008;48.140;11.614;2023-11-22T04:07:33;95752.25;;;6.99;82.95
82379;BME280;72008;48.140;11.614;2023-11-22T04:08:34;95754.97;;;6.99;78.22
82379;BME280;72008;48.140;11.614;2023-11-22T04:09:34;95752.53;;;6.97;80.54
82379;BME280;72008;48.140;11.614;2023-11-22T04:10:35;95753.66;;;6.96;78.19
82379;BME280;72008;48.140;11.614;2023-11-22T04:11:35;95747.72;;;6.94;83.03
82379;BME280;72008;48.140;11.614;2023-11-22T04:12:36;95754.84;;;7.04;78.30
82379;BME280;72008;48.140;11.614;2023-11-22T04:13:37;95757.72;;;7.07;81.98
82379;BME280;72008;48.140;11.614;2023-11-22T04:14:37;95759.63;;;6.98;77.63
82379;BME280;72008;48.140;11.614;2023-11-22T04:15:37;95753.22;;;7.03;85.02
82379;BME280;72008;48.140;11.614;2023-11-22T04:16:38;95752.13;;;7.04;81.17
82379;BME280;72008;48.140;11.614;2023-11-22T04:17:38;95749.69;;;7.02;82.76
82379;BME280;72008;48.140;11.614;2023-11-22T04:18:39;95751.63;;;7.02;80.01
82379;BME280;72008;48.140;11.614;2023-11-22T04:19:41;95753.16;;;6.94;81.51
82379;BME280;72008;48.140;11.614;2023-11-22T04:20:41;95748.53;;;6.95;85.25
82379;BME280;72008;48.140;11.614;2023-11-22T04:21:42;95753.97;;;6.95;82.95
82379;BME280;72008;48.140;11.614;2023-11-22T04:22:44;95751.69;;;6.88;77.63
82379;BME280;72008;48.140;11.614;2023-11-22T04:23:44;95758.16;;;6.92;82.01
82379;BME280;72008;48.140;11.614;2023-11-22T04:24:45;95741.03;;;7.00;82.67
82379;BME280;72008;48.140;11.614;2023-11-22T04:25:45;95758.28;;;6.87;82.92
82379;BME280;72008;48.140;11.614;2023-11-22T04:26:46;95755.09;;;6.94;80.11
82379;BME280;72008;48.140;11.614;2023-11-22T04:27:46;95753.16;;;6.94;79.27
82379;BME280;72008;48.140;11.614;2023-11-22T04:28:46;95754.47;;;6.97;83.38
82379;BME280;72008;48.140;11.614;2023-11-22T04:29:47;95749.66;;;6.94;81.27
82379;BME280;72008;48.140;11.614;2023-11-22T04:30:47;95755.75;;;6.99;82.20
82379;BME280;72008;48.140;11.614;2023-11-22T04:31:48;95752.91;;;7.04;84.19
82379;BME280;72008;48.140;11.614;2023-11-22T04:32:48;95757.69;;;6.99;82.62
82379;BME280;72008;48.140;11.614;2023-11-22T04:33:48;95759.41;;;6.95;82.73
82379;BME280;72008;48.140;11.614;2023-11-22T04:34:49;95767.81;;;7.07;85.06
82379;BME280;72008;48.140;11.614;2023-11-22T04:35:49;95762.84;;;7.09;85.65
82379;BME280;72008;48.140;11.614;2023-11-22T04:36:50;95761.22;;;6.99;78.71
82379;BME280;72008;48.140;11.614;2023-11-22T04:37:50;95759.88;;;6.88;80.46
82379;BME280;72008;48.140;11.614;2023-11-22T04:38:51;95771.88;;;6.87;80.02
82379;BME280;72008;48.140;11.614;2023-11-22T04:39:51;95782.84;;;6.73;78.37
82379;BME280;72008;48.140;11.614;2023-11-22T04:40:52;95775.34;;;6.79;83.15
82379;BME280;72008;48.140;11.614;2023-11-22T04:41:52;95774.09;;;6.85;80.50
82379;BME280;72008;48.140;11.614;2023-11-22T04:42:53;95775.69;;;6.86;79.44
82379;BME280;72008;48.140;11.614;2023-11-22T04:43:53;95776.03;;;6.84;77.92
82379;BME280;72008;48.140;11.614;2023-11-22T04:44:54;95776.03;;;6.84;79.89
82379;BME280;72008;48.140;11.614;2023-11-22T04:45:54;95783.69;;;6.82;79.25
82379;BME280;72008;48.140;11.614;2023-11-22T04:46:55;95787.75;;;6.94;85.09
82379;BME280;72008;48.140;11.614;2023-11-22T04:47:55;95788.38;;;6.91;79.37
82379;BME280;72008;48.140;11.614;2023-11-22T04:48:56;95783.91;;;6.95;79.88
82379;BME280;72008;48.140;11.614;2023-11-22T04:49:56;95783.91;;;6.95;81.67
82379;BME280;72008;48.140;11.614;2023-11-22T04:50:57;95788.88;;;6.93;80.37
82379;BME280;72008;48.140;11.614;2023-11-22T04:51:57;95793.94;;;6.86;75.96
82379;BME280;72008;48.140;11.614;2023-11-22T04:52:58;95790.47;;;6.94;81.96
82379;BME280;72008;48.140;11.614;2023-11-22T04:53:58;95792.00;;;6.77;80.02
82379;BME280;72008;48.140;11.614;2023-11-22T04:54:58;95786.91;;;6.84;78.77
82379;BME280;72008;48.140;11.614;2023-11-22T04:55:59;95790.41;;;6.85;79.77
82379;BME280;72008;48.140;11.614;2023-11-22T04:56:59;95792.69;;;6.92;80.98
82379;BME280;72008;48.140;11.614;2023-11-22T04:58:00;95794.75;;;6.86;82.99
82379;BME280;72008;48.140;11.614;2023-11-22T04:59:00;95789.78;;;6.88;81.97
82379;BME280;72008;48.140;11.614;2023-11-22T05:00:00;95805.41;;;6.74;76.53
82379;BME280;72008;48.140;11.614;2023-11-22T05:01:01;95805.84;;;6.67;79.64
82379;BME280;72008;48.140;11.614;2023-11-22T05:02:02;95806.00;;;6.71;81.81
82379;BME280;72008;48.140;11.614;2023-11-22T05:03:02;95810.78;;;6.65;76.22
82379;BME280;72008;48.140;11.614;2023-11-22T05:04:03;95812.25;;;6.71;76.62
82379;BME280;72008;48.140;11.614;2023-11-22T05:05:04;95822.66;;;6.69;78.29
82379;BME280;72008;48.140;11.614;2023-11-22T05:06:04;95819.19;;;6.55;79.18
82379;BME280;72008;48.140;11.614;2023-11-22T05:07:05;95819.63;;;6.71;80.58
82379;BME280;72008;48.140;11.614;2023-11-22T05:08:05;95818.88;;;6.79;80.56
82379;BME280;72008;48.140;11.614;2023-11-22T05:09:06;95824.03;;;6.80;81.39
82379;BME280;72008;48.140;11.614;2023-11-22T05:10:06;95810.88;;;6.82;79.90
82379;BME280;72008;48.140;11.614;2023-11-22T05:11:08;95815.34;;;6.78;79.65
82379;BME280;72008;48.140;11.614;2023-11-22T05:12:09;95818.59;;;6.80;78.09
82379;BME280;72008;48.140;11.614;2023-11-22T05:13:09;95816.16;;;6.79;76.05
82379;BME280;72008;48.140;11.614;2023-11-22T05:14:10;95817.75;;;6.80;79.15
82379;BME280;72008;48.140;11.614;2023-11-22T05:15:11;95812.41;;;6.66;75.40
82379;BME280;72008;48.140;11.614;2023-11-22T05:16:11;95822.28;;;6.62;81.66
82379;BME280;72008;48.140;11.614;2023-11-22T05:17:12;95812.25;;;6.71;84.11
82379;BME280;72008;48.140;11.614;2023-11-22T05:18:12;95818.81;;;6.70;81.11
82379;BME280;72008;48.140;11.614;2023-11-22T05:19:12;95821.97;;;6.64;78.56
82379;BME280;72008;48.140;11.614;2023-11-22T05:20:13;95823.00;;;6.76;78.04
82379;BME280;72008;48.140;11.614;2023-11-22T05:21:13;95820.19;;;6.81;83.45